createdAt,value
2018-11-07T00:00:38.919Z,22.17
2018-11-07T00:03:07.690Z,24.80
2018-11-07T00:05:36.312Z,26.33
2018-11-07T00:08:05.138Z,23.73
2018-11-07T00:10:33.595Z,21.33
2018-11-07T00:13:02.308Z,24.30
2018-11-07T00:15:30.937Z,25.37
2018-11-07T00:17:59.603Z,27.50
2018-11-07T00:20:29.582Z,21.27
2018-11-07T00:22:58.194Z,22.83
2018-11-07T00:25:26.772Z,26.27
2018-11-07T00:27:55.426Z,25.27
2018-11-07T00:30:24.106Z,25.13
2018-11-07T00:32:52.693Z,24.10
2018-11-07T00:35:21.429Z,25.73
2018-11-07T00:37:50.024Z,26.43
2018-11-07T00:40:18.644Z,26.13
2018-11-07T00:42:47.229Z,27.53
2018-11-07T00:45:15.859Z,27.80
2018-11-07T00:47:44.464Z,23.27
2018-11-07T00:50:15.298Z,23.60
2018-11-07T00:52:44.426Z,25.33
2018-11-07T00:55:13.954Z,27.53
2018-11-07T00:57:42.653Z,24.10
2018-11-07T01:00:14.419Z,27.67
2018-11-07T01:02:42.974Z,24.73
2018-11-07T01:05:12.849Z,26.40
2018-11-07T01:07:42.277Z,25.20
2018-11-07T01:10:11.047Z,30.00
2018-11-07T01:12:40.364Z,27.50
2018-11-07T01:15:11.119Z,23.86
2018-11-07T01:17:39.759Z,24.50
2018-11-07T01:20:09.911Z,25.07
2018-11-07T01:22:38.535Z,23.23
2018-11-07T01:25:08.042Z,25.43
2018-11-07T01:27:36.632Z,26.40
2018-11-07T01:30:06.890Z,27.10
2018-11-07T01:32:35.514Z,25.80
2018-11-07T01:35:04.200Z,25.53
2018-11-07T01:37:33.863Z,27.30
2018-11-07T01:40:02.509Z,25.37
2018-11-07T01:42:31.085Z,24.70
2018-11-07T01:44:59.690Z,26.47
2018-11-07T01:47:28.331Z,23.33
2018-11-07T01:49:56.972Z,27.90
2018-11-07T01:52:25.613Z,24.87
2018-11-07T01:54:54.224Z,25.70
2018-11-07T01:57:22.863Z,27.27
2018-11-07T01:59:51.490Z,25.27
2018-11-07T02:02:20.139Z,26.10
2018-11-07T02:04:48.762Z,27.37
2018-11-07T02:07:17.427Z,23.33
2018-11-07T02:09:46.026Z,25.07
2018-11-07T02:12:14.665Z,26.70
2018-11-07T02:14:43.308Z,22.73
2018-11-07T02:17:11.899Z,23.87
2018-11-07T02:19:40.512Z,24.87
2018-11-07T02:22:09.129Z,23.60
2018-11-07T02:24:37.712Z,24.63
2018-11-07T02:27:06.450Z,24.60
2018-11-07T02:29:35.026Z,22.73
2018-11-07T02:32:03.663Z,22.30
2018-11-07T02:34:32.245Z,20.57
2018-11-07T02:37:03.715Z,20.13
2018-11-07T02:39:32.297Z,21.83
2018-11-07T02:42:00.994Z,25.17
2018-11-07T02:44:29.540Z,23.23
2018-11-07T02:46:58.126Z,19.63
2018-11-07T02:49:26.669Z,22.77
2018-11-07T02:51:55.555Z,21.60
2018-11-07T02:54:24.146Z,21.90
2018-11-07T02:56:52.751Z,20.03
2018-11-07T02:59:21.368Z,22.13
2018-11-07T03:01:49.985Z,21.87
2018-11-07T03:04:18.560Z,17.57
2018-11-07T03:06:47.203Z,31.07
2018-11-07T03:09:15.810Z,20.30
2018-11-07T03:11:44.378Z,18.87
2018-11-07T03:14:12.966Z,19.30
2018-11-07T03:16:41.642Z,19.97
2018-11-07T03:19:10.267Z,20.93
2018-11-07T03:21:38.857Z,18.93
2018-11-07T03:24:07.446Z,20.50
2018-11-07T03:26:36.094Z,19.73
2018-11-07T03:29:04.811Z,18.50
2018-11-07T03:31:33.422Z,18.50
2018-11-07T03:34:02.054Z,16.97
2018-11-07T03:36:30.620Z,19.37
2018-11-07T03:38:59.263Z,24.13
2018-11-07T03:41:27.979Z,17.63
2018-11-07T03:43:56.580Z,18.70
2018-11-07T03:46:25.267Z,18.80
2018-11-07T03:48:53.891Z,16.50
2018-11-07T03:51:22.482Z,17.60
2018-11-07T03:53:51.106Z,19.23
2018-11-07T03:56:19.730Z,18.10
2018-11-07T03:58:48.285Z,15.93
2018-11-07T04:01:16.867Z,19.47
2018-11-07T04:03:45.574Z,16.60
2018-11-07T04:06:14.210Z,16.27
2018-11-07T04:08:42.788Z,15.00
2018-11-07T04:11:11.415Z,15.90
2018-11-07T04:13:40.039Z,16.10
2018-11-07T04:16:08.633Z,16.47
2018-11-07T04:18:37.257Z,17.07
2018-11-07T04:21:05.906Z,15.90
2018-11-07T04:23:34.561Z,14.83
2018-11-07T04:26:03.167Z,16.03
2018-11-07T04:28:31.750Z,15.57
2018-11-07T04:31:00.441Z,12.90
2018-11-07T04:33:29.074Z,18.53
2018-11-07T04:35:57.653Z,15.73
2018-11-07T04:38:26.375Z,15.73
2018-11-07T04:40:55.006Z,17.50
2018-11-07T04:43:23.605Z,14.33
2018-11-07T04:45:52.172Z,15.53
2018-11-07T04:48:20.827Z,14.40
2018-11-07T04:50:49.604Z,14.63
2018-11-07T04:53:18.169Z,13.73
2018-11-07T04:55:46.823Z,16.87
2018-11-07T04:58:15.491Z,13.30
2018-11-07T05:00:44.130Z,13.93
2018-11-07T05:03:12.731Z,12.70
2018-11-07T05:05:41.323Z,13.40
2018-11-07T05:08:09.963Z,14.40
2018-11-07T05:10:38.544Z,15.73
2018-11-07T05:13:07.217Z,16.80
2018-11-07T05:15:35.903Z,16.60
2018-11-07T05:18:04.542Z,14.23
2018-11-07T05:20:33.175Z,12.70
2018-11-07T05:23:01.793Z,11.97
2018-11-07T05:25:30.457Z,11.93
2018-11-07T05:27:59.097Z,15.20
2018-11-07T05:30:27.672Z,12.57
2018-11-07T05:32:56.315Z,14.60
2018-11-07T05:35:24.936Z,12.30
2018-11-07T05:37:53.562Z,13.10
2018-11-07T05:40:22.166Z,11.93
2018-11-07T05:42:50.824Z,13.90
2018-11-07T05:45:19.438Z,13.93
2018-11-07T05:47:48.083Z,13.40
2018-11-07T05:50:16.763Z,11.47
2018-11-07T05:52:46.989Z,11.33
2018-11-07T05:55:19.952Z,12.63
2018-11-07T05:57:48.629Z,13.13
2018-11-07T06:00:17.284Z,11.57
2018-11-07T06:02:45.962Z,13.97
2018-11-07T06:05:14.564Z,12.27
2018-11-07T06:07:43.149Z,10.93
2018-11-07T06:10:12.879Z,11.03
2018-11-07T06:12:41.627Z,13.37
2018-11-07T06:15:11.290Z,11.30
2018-11-07T06:17:40.042Z,13.17
2018-11-07T06:20:09.648Z,11.33
2018-11-07T06:22:38.269Z,11.13
2018-11-07T06:25:07.119Z,13.17
2018-11-07T06:27:35.792Z,12.00
2018-11-07T06:30:05.090Z,11.73
2018-11-07T06:32:33.658Z,11.03
2018-11-07T06:35:02.333Z,14.17
2018-11-07T06:37:30.995Z,10.93
2018-11-07T06:39:59.580Z,12.13
2018-11-07T06:42:28.197Z,9.20
2018-11-07T06:44:56.778Z,12.77
2018-11-07T06:47:25.441Z,12.67
2018-11-07T06:49:54.120Z,11.43
2018-11-07T06:52:22.735Z,11.50
2018-11-07T06:54:51.369Z,11.43
2018-11-07T06:57:19.996Z,11.63
2018-11-07T06:59:48.597Z,13.87
2018-11-07T07:02:17.229Z,12.77
2018-11-07T07:04:45.939Z,11.57
2018-11-07T07:07:14.534Z,12.83
2018-11-07T07:09:43.137Z,10.47
2018-11-07T07:12:11.810Z,11.67
2018-11-07T07:14:40.609Z,13.00
2018-11-07T07:17:09.201Z,17.30
2018-11-07T07:19:37.888Z,11.10
2018-11-07T07:22:06.703Z,12.23
2018-11-07T07:24:35.311Z,11.43
2018-11-07T07:27:03.985Z,11.00
2018-11-07T07:29:32.619Z,12.53
2018-11-07T07:32:01.274Z,11.87
2018-11-07T07:34:29.905Z,14.10
2018-11-07T07:36:58.528Z,10.73
2018-11-07T07:39:27.141Z,12.97
2018-11-07T07:41:55.746Z,13.40
2018-11-07T07:44:24.343Z,12.60
2018-11-07T07:46:52.992Z,13.83
2018-11-07T07:49:21.734Z,13.47
2018-11-07T07:51:50.305Z,13.13
2018-11-07T07:54:18.975Z,16.87
2018-11-07T07:56:47.588Z,13.07
2018-11-07T07:59:16.257Z,14.13
2018-11-07T08:01:44.838Z,13.23
2018-11-07T08:04:13.468Z,13.73
2018-11-07T08:06:42.100Z,14.97
2018-11-07T08:09:13.432Z,16.37
2018-11-07T08:11:42.215Z,14.90
2018-11-07T08:14:11.343Z,12.97
2018-11-07T08:16:39.951Z,13.53
2018-11-07T08:19:09.401Z,12.43
2018-11-07T08:21:38.040Z,14.67
2018-11-07T08:24:06.727Z,14.67
2018-11-07T08:26:35.975Z,14.60
2018-11-07T08:29:04.687Z,13.97
2018-11-07T08:31:33.636Z,13.57
2018-11-07T08:34:02.291Z,13.73
2018-11-07T08:36:30.895Z,16.13
2018-11-07T08:38:59.565Z,14.13
2018-11-07T08:41:28.231Z,13.53
2018-11-07T08:43:56.820Z,16.10
2018-11-07T08:46:25.411Z,15.10
2018-11-07T08:48:54.127Z,15.53
2018-11-07T08:51:22.744Z,16.33
2018-11-07T08:53:51.332Z,13.43
2018-11-07T08:56:20.004Z,13.67
2018-11-07T08:58:48.623Z,13.83
2018-11-07T09:01:17.295Z,13.30
2018-11-07T09:03:45.929Z,14.37
2018-11-07T09:06:14.566Z,15.10
2018-11-07T09:08:43.183Z,14.33
2018-11-07T09:11:11.859Z,15.50
2018-11-07T09:13:40.560Z,15.23
2018-11-07T09:16:09.218Z,11.97
2018-11-07T09:18:37.835Z,14.07
2018-11-07T09:21:06.470Z,14.30
2018-11-07T09:23:35.115Z,12.13
2018-11-07T09:26:03.812Z,11.67
2018-11-07T09:28:32.425Z,12.17
2018-11-07T09:31:01.059Z,13.37
2018-11-07T09:33:29.728Z,10.60
2018-11-07T09:35:58.378Z,11.23
2018-11-07T09:38:27.066Z,12.53
2018-11-07T09:40:55.703Z,13.30
2018-11-07T09:43:24.339Z,11.93
2018-11-07T09:45:52.953Z,13.33
2018-11-07T09:48:21.674Z,11.70
2018-11-07T09:50:50.218Z,10.60
2018-11-07T09:53:18.807Z,9.83
2018-11-07T09:55:47.424Z,9.77
2018-11-07T09:58:16.050Z,11.37
2018-11-07T10:00:44.693Z,9.93
2018-11-07T10:03:13.342Z,8.50
2018-11-07T10:05:42.081Z,10.63
2018-11-07T10:08:10.602Z,9.43
2018-11-07T10:10:39.200Z,9.10
2018-11-07T10:13:07.879Z,7.47
2018-11-07T10:15:36.530Z,8.77
2018-11-07T10:18:05.303Z,10.73
2018-11-07T10:20:33.955Z,7.23
2018-11-07T10:23:02.521Z,6.63
2018-11-07T10:25:31.135Z,7.40
2018-11-07T10:27:59.968Z,7.93
2018-11-07T10:30:28.433Z,8.63
2018-11-07T10:32:57.001Z,6.70
2018-11-07T10:35:25.626Z,5.60
2018-11-07T10:37:54.290Z,7.17
2018-11-07T10:40:24.277Z,7.07
2018-11-07T10:42:52.926Z,6.60
2018-11-07T10:45:21.720Z,5.93
2018-11-07T10:47:50.952Z,6.90
2018-11-07T10:50:20.617Z,8.63
2018-11-07T10:52:49.846Z,4.67
2018-11-07T10:55:18.917Z,6.20
2018-11-07T10:57:47.557Z,5.03
2018-11-07T11:00:21.736Z,5.50
2018-11-07T11:02:55.623Z,6.50
2018-11-07T11:05:24.235Z,4.27
2018-11-07T11:07:52.877Z,4.70
2018-11-07T11:10:21.954Z,4.33
2018-11-07T11:12:50.623Z,5.23
2018-11-07T11:15:19.258Z,6.07
2018-11-07T11:17:47.895Z,4.57
2018-11-07T11:20:16.513Z,4.40
2018-11-07T11:22:45.161Z,6.63
2018-11-07T11:25:13.807Z,8.13
2018-11-07T11:27:42.450Z,5.87
2018-11-07T11:30:11.217Z,8.30
2018-11-07T11:32:40.256Z,5.27
2018-11-07T11:35:10.133Z,6.10
2018-11-07T11:37:38.655Z,5.40
2018-11-07T11:40:09.739Z,4.03
2018-11-07T11:42:38.381Z,4.80
2018-11-07T11:45:08.302Z,4.23
2018-11-07T11:47:37.076Z,4.90
2018-11-07T11:50:08.248Z,3.73
2018-11-07T11:52:36.930Z,5.73
2018-11-07T11:55:05.768Z,4.03
2018-11-07T11:57:34.352Z,3.40
2018-11-07T12:00:03.306Z,2.90
2018-11-07T12:02:31.610Z,2.83
2018-11-07T12:05:00.247Z,4.17
2018-11-07T12:07:28.851Z,3.20
2018-11-07T12:09:57.490Z,3.90
2018-11-07T12:12:26.191Z,2.27
2018-11-07T12:14:54.819Z,2.50
2018-11-07T12:17:23.440Z,3.50
2018-11-07T12:19:52.102Z,4.33
2018-11-07T12:22:20.754Z,4.27
2018-11-07T12:24:49.390Z,2.20
2018-11-07T12:27:18.813Z,2.47
2018-11-07T12:29:47.444Z,4.07
2018-11-07T12:32:16.090Z,2.33
2018-11-07T12:34:44.718Z,2.67
2018-11-07T12:37:16.419Z,4.10
2018-11-07T12:39:45.026Z,2.07
2018-11-07T12:42:13.643Z,2.08
2018-11-07T12:44:42.267Z,1.47
2018-11-07T12:47:10.884Z,2.13
2018-11-07T12:49:39.571Z,1.67
2018-11-07T12:52:08.178Z,3.37
2018-11-07T12:54:36.798Z,1.83
2018-11-07T12:57:05.677Z,2.77
2018-11-07T12:59:34.326Z,2.73
2018-11-07T13:02:03.203Z,2.30
2018-11-07T13:04:32.173Z,2.62
2018-11-07T13:07:00.908Z,2.50
2018-11-07T13:09:29.554Z,1.92
2018-11-07T13:11:58.215Z,2.42
2018-11-07T13:14:26.893Z,2.25
2018-11-07T13:16:55.638Z,2.08
2018-11-07T13:19:24.284Z,2.00
2018-11-07T13:21:52.895Z,2.00
2018-11-07T13:24:21.505Z,2.80
2018-11-07T13:26:50.123Z,2.15
2018-11-07T13:29:18.791Z,2.27
2018-11-07T13:31:47.625Z,3.15
2018-11-07T13:34:16.346Z,2.50
2018-11-07T13:36:45.023Z,2.77
2018-11-07T13:39:14.087Z,2.92
2018-11-07T13:41:42.724Z,2.30
2018-11-07T13:44:11.343Z,2.35
2018-11-07T13:46:39.987Z,2.67
2018-11-07T13:49:08.627Z,2.67
2018-11-07T13:51:37.230Z,2.20
2018-11-07T13:54:05.867Z,1.90
2018-11-07T13:56:34.490Z,3.40
2018-11-07T13:59:03.155Z,2.20
2018-11-07T14:01:31.846Z,4.78
2018-11-07T14:04:00.601Z,2.08
2018-11-07T14:06:29.231Z,4.37
2018-11-07T14:08:57.893Z,1.80
2018-11-07T14:11:26.503Z,1.62
2018-11-07T14:13:55.182Z,1.98
2018-11-07T14:16:23.962Z,2.30
2018-11-07T14:18:52.642Z,1.42
2018-11-07T14:21:21.253Z,2.00
2018-11-07T14:23:49.918Z,2.30
2018-11-07T14:26:18.668Z,1.90
2018-11-07T14:28:47.461Z,3.98
2018-11-07T14:31:16.031Z,2.80
2018-11-07T14:33:44.738Z,1.52
2018-11-07T14:36:13.419Z,1.67
2018-11-07T14:38:42.139Z,2.17
2018-11-07T14:41:10.685Z,1.90
2018-11-07T14:43:39.333Z,1.80
2018-11-07T14:46:08.004Z,3.35
2018-11-07T14:48:36.671Z,1.45
2018-11-07T14:51:05.829Z,2.62
2018-11-07T14:53:34.560Z,1.52
2018-11-07T14:56:09.172Z,3.52
2018-11-07T14:58:37.782Z,2.13
2018-11-07T15:01:10.265Z,2.30
2018-11-07T15:03:46.764Z,2.52
2018-11-07T15:06:16.171Z,2.37
2018-11-07T15:08:44.710Z,2.80
2018-11-07T15:11:13.388Z,2.35
2018-11-07T15:13:42.045Z,2.40
2018-11-07T15:16:10.650Z,4.15
2018-11-07T15:18:39.292Z,2.30
2018-11-07T15:21:07.937Z,3.10
2018-11-07T15:23:36.590Z,2.87
2018-11-07T15:26:05.713Z,5.00
2018-11-07T15:28:34.319Z,4.37
2018-11-07T15:31:03.004Z,3.50
2018-11-07T15:33:31.628Z,4.77
2018-11-07T15:36:00.278Z,3.97
2018-11-07T15:38:28.922Z,3.15
2018-11-07T15:40:57.546Z,3.07
2018-11-07T15:43:26.270Z,4.05
2018-11-07T15:45:54.911Z,4.05
2018-11-07T15:48:23.602Z,2.75
2018-11-07T15:50:57.416Z,9.95
2018-11-07T15:53:26.122Z,4.50
2018-11-07T15:55:55.648Z,11.70
2018-11-07T15:58:24.304Z,2.98
2018-11-07T16:00:52.966Z,3.57
2018-11-07T16:03:26.947Z,4.95
2018-11-07T16:05:55.657Z,6.90
2018-11-07T16:08:24.282Z,9.00
2018-11-07T16:10:52.899Z,7.93
2018-11-07T16:13:21.578Z,4.67
2018-11-07T16:15:50.426Z,10.87
2018-11-07T16:18:19.188Z,5.83
2018-11-07T16:20:47.909Z,3.58
2018-11-07T16:23:16.622Z,44.37
2018-11-07T16:25:46.087Z,12.40
2018-11-07T16:28:14.783Z,4.40
2018-11-07T16:30:43.442Z,4.67
2018-11-07T16:33:12.027Z,4.37
2018-11-07T16:35:40.673Z,10.60
2018-11-07T16:38:09.284Z,4.30
2018-11-07T16:40:37.957Z,6.50
2018-11-07T16:43:06.708Z,4.03
2018-11-07T16:45:35.419Z,5.13
2018-11-07T16:48:04.142Z,2.93
2018-11-07T16:50:32.769Z,5.57
2018-11-07T16:53:01.447Z,4.30
2018-11-07T16:55:30.121Z,3.15
2018-11-07T16:57:58.888Z,4.57
2018-11-07T17:00:27.495Z,4.73
2018-11-07T17:02:56.203Z,7.97
2018-11-07T17:05:25.018Z,18.07
2018-11-07T17:07:53.660Z,16.07
2018-11-07T17:10:22.300Z,16.80
2018-11-07T17:12:50.988Z,19.13
2018-11-07T17:15:20.606Z,21.20
2018-11-07T17:17:49.275Z,25.27
2018-11-07T17:20:18.585Z,29.97
2018-11-07T17:22:47.216Z,28.83
2018-11-07T17:25:17.366Z,26.80
2018-11-07T17:27:46.043Z,27.10
2018-11-07T17:30:15.765Z,32.87
2018-11-07T17:32:49.207Z,32.90
2018-11-07T17:35:18.765Z,31.73
2018-11-07T17:37:47.807Z,35.00
2018-11-07T17:40:19.739Z,15.23
2018-11-07T17:42:48.555Z,8.47
2018-11-07T17:45:18.838Z,10.93
2018-11-07T17:47:48.233Z,7.27
2018-11-07T17:50:17.485Z,9.43
2018-11-07T17:52:46.139Z,8.53
2018-11-07T17:55:15.898Z,6.73
2018-11-07T17:57:44.648Z,5.27
2018-11-07T18:00:15.450Z,4.77
2018-11-07T18:02:44.295Z,4.40
2018-11-07T18:05:13.056Z,4.87
2018-11-07T18:07:41.772Z,6.33
2018-11-07T18:10:12.466Z,5.33
2018-11-07T18:12:41.397Z,6.57
2018-11-07T18:15:10.446Z,5.27
2018-11-07T18:17:40.503Z,5.87
2018-11-07T18:20:11.110Z,6.97
2018-11-07T18:22:39.829Z,6.40
2018-11-07T18:25:10.231Z,9.07
2018-11-07T18:27:39.118Z,10.63
2018-11-07T18:30:09.485Z,15.37
2018-11-07T18:32:38.250Z,17.60
2018-11-07T18:35:08.449Z,13.53
2018-11-07T18:37:37.064Z,9.10
2018-11-07T18:40:07.780Z,7.93
2018-11-07T18:42:36.456Z,7.60
2018-11-07T18:45:06.324Z,7.93
2018-11-07T18:47:34.948Z,7.00
2018-11-07T18:50:03.679Z,5.90
2018-11-07T18:52:32.383Z,5.63
2018-11-07T18:55:01.087Z,7.37
2018-11-07T18:57:29.778Z,7.53
2018-11-07T18:59:58.625Z,6.00
2018-11-07T19:02:27.347Z,5.60
2018-11-07T19:04:56.454Z,6.40
2018-11-07T19:07:25.167Z,7.70
2018-11-07T19:09:53.784Z,7.20
2018-11-07T19:12:22.435Z,6.43
2018-11-07T19:14:51.053Z,6.43
2018-11-07T19:17:20.053Z,6.20
2018-11-07T19:19:48.706Z,6.43
2018-11-07T19:22:17.397Z,6.17
2018-11-07T19:24:46.020Z,5.90
2018-11-07T19:27:14.938Z,7.37
2018-11-07T19:29:43.575Z,5.83
2018-11-07T19:32:12.207Z,9.23
2018-11-07T19:34:40.876Z,10.03
2018-11-07T19:37:09.659Z,5.87
2018-11-07T19:39:38.351Z,6.40
2018-11-07T19:42:07.015Z,6.07
2018-11-07T19:44:35.940Z,9.33
2018-11-07T19:47:04.712Z,6.50
2018-11-07T19:49:33.320Z,7.93
2018-11-07T19:52:01.963Z,6.43
2018-11-07T19:54:30.612Z,5.37
2018-11-07T19:56:59.406Z,4.97
2018-11-07T19:59:28.076Z,7.47
2018-11-07T20:01:57.097Z,5.70
2018-11-07T20:04:25.925Z,8.17
2018-11-07T20:06:55.844Z,5.47
2018-11-07T20:09:24.730Z,5.00
2018-11-07T20:11:53.600Z,4.57
2018-11-07T20:14:25.233Z,6.70
2018-11-07T20:16:55.092Z,4.77
2018-11-07T20:19:23.873Z,4.43
2018-11-07T20:21:52.644Z,5.33
2018-11-07T20:24:21.504Z,4.97
2018-11-07T20:26:50.166Z,5.00
2018-11-07T20:29:19.017Z,8.87
2018-11-07T20:31:49.260Z,4.20
2018-11-07T20:34:18.194Z,4.30
2018-11-07T20:36:46.953Z,5.03
2018-11-07T20:39:16.237Z,4.50
2018-11-07T20:41:45.630Z,4.90
2018-11-07T20:44:15.945Z,4.80
2018-11-07T20:46:46.794Z,4.87
2018-11-07T20:49:15.644Z,4.80
2018-11-07T20:51:45.254Z,5.07
2018-11-07T20:54:15.739Z,5.97
2018-11-07T20:56:44.425Z,5.63
2018-11-07T20:59:14.219Z,5.90
2018-11-07T21:01:45.710Z,6.07
2018-11-07T21:04:16.193Z,4.97
2018-11-07T21:06:44.968Z,5.73
2018-11-07T21:09:13.739Z,5.63
2018-11-07T21:11:42.996Z,6.73
2018-11-07T21:14:11.843Z,9.30
2018-11-07T21:16:40.893Z,7.10
2018-11-07T21:19:09.925Z,5.30
2018-11-07T21:21:38.685Z,6.27
2018-11-07T21:24:07.415Z,5.07
2018-11-07T21:26:36.154Z,7.20
2018-11-07T21:29:04.837Z,5.97
2018-11-07T21:31:33.519Z,6.90
2018-11-07T21:34:02.203Z,8.50
2018-11-07T21:36:31.090Z,7.70
2018-11-07T21:39:02.489Z,7.10
2018-11-07T21:41:31.159Z,8.90
2018-11-07T21:43:59.964Z,11.23
2018-11-07T21:46:29.618Z,5.20
2018-11-07T21:48:58.447Z,5.57
2018-11-07T21:51:27.080Z,5.97
2018-11-07T21:53:55.751Z,6.23
2018-11-07T21:56:24.375Z,5.73
2018-11-07T21:58:53.323Z,6.17
2018-11-07T22:01:22.285Z,5.63
2018-11-07T22:03:50.916Z,6.47
2018-11-07T22:06:19.565Z,5.33
2018-11-07T22:08:48.186Z,8.00
2018-11-07T22:11:16.814Z,6.27
2018-11-07T22:13:45.452Z,5.70
2018-11-07T22:16:14.155Z,6.97
2018-11-07T22:18:42.935Z,7.43
2018-11-07T22:21:16.244Z,5.50
2018-11-07T22:23:51.573Z,7.63
2018-11-07T22:26:20.166Z,7.00
2018-11-07T22:28:48.786Z,6.63
2018-11-07T22:31:17.487Z,8.13
2018-11-07T22:33:46.139Z,7.40
2018-11-07T22:36:14.746Z,6.17
2018-11-07T22:38:43.383Z,6.80
2018-11-07T22:41:11.983Z,6.07
2018-11-07T22:43:40.601Z,7.73
2018-11-07T22:46:09.196Z,5.63
2018-11-07T22:48:37.809Z,7.70
2018-11-07T22:51:06.420Z,6.63
2018-11-07T22:53:35.021Z,8.60
2018-11-07T22:56:03.666Z,6.03
2018-11-07T22:58:32.268Z,8.57
2018-11-07T23:01:06.271Z,6.10
2018-11-07T23:03:34.969Z,8.40
2018-11-07T23:06:03.694Z,6.10
2018-11-07T23:08:32.354Z,6.13
2018-11-07T23:11:00.960Z,6.03
2018-11-07T23:13:29.599Z,7.30
2018-11-07T23:15:58.241Z,6.03
2018-11-07T23:18:26.858Z,6.20
2018-11-07T23:20:55.476Z,5.53
2018-11-07T23:23:24.078Z,6.47
2018-11-07T23:25:54.944Z,5.40
2018-11-07T23:28:25.981Z,7.47
2018-11-07T23:30:54.692Z,5.37
2018-11-07T23:33:23.364Z,6.23
2018-11-07T23:35:51.991Z,6.27
2018-11-07T23:38:20.640Z,5.73
2018-11-07T23:40:49.247Z,4.87
2018-11-07T23:43:17.880Z,6.00
2018-11-07T23:45:46.520Z,6.63
2018-11-07T23:48:15.133Z,6.40
2018-11-07T23:50:43.758Z,4.90
2018-11-07T23:53:13.907Z,4.23
2018-11-07T23:55:43.520Z,4.60
2018-11-07T23:58:12.405Z,5.57
